sensor_id;sensor_type;location;lat;lon;timestamp;pressure;altitude;pressure_sealevel;temperature;humidity
72975;BME280;61166;54.228;37.632;2022-11-04T00:00:53;99323.25;;;0.06;nan
72975;BME280;61166;54.228;37.632;2022-11-04T00:03:20;99324.59;;;0.10;nan
72975;BME280;61166;54.228;37.632;2022-11-04T00:05:47;99325.44;;;0.01;nan
72975;BME280;61166;54.228;37.632;2022-11-04T00:08:14;99327.38;;;-0.01;nan
72975;BME280;61166;54.228;37.632;2022-11-04T00:10:40;99335.25;;;-0.03;nan
72975;BME280;61166;54.228;37.632;2022-11-04T00:13:07;99342.56;;;0.02;nan
72975;BME280;61166;54.228;37.632;2022-11-04T00:15:37;99345.00;;;0.04;nan
72975;BME280;61166;54.228;37.632;2022-11-04T00:18:04;99335.50;;;0.04;nan
72975;BME280;61166;54.228;37.632;2022-11-04T00:20:30;99339.84;;;0.04;nan
72975;BME280;61166;54.228;37.632;2022-11-04T00:22:57;99336.84;;;0.08;nan
72975;BME280;61166;54.228;37.632;2022-11-04T00:25:24;99337.78;;;0.17;nan
72975;BME280;61166;54.228;37.632;2022-11-04T00:27:50;99330.81;;;0.17;nan
72975;BME280;61166;54.228;37.632;2022-11-04T00:30:17;99344.88;;;0.05;nan
72975;BME280;61166;54.228;37.632;2022-11-04T00:32:44;99336.63;;;-0.08;nan
72975;BME280;61166;54.228;37.632;2022-11-04T00:35:11;99342.91;;;-0.20;nan
72975;BME280;61166;54.228;37.632;2022-11-04T00:37:39;99333.41;;;-0.29;nan
72975;BME280;61166;54.228;37.632;2022-11-04T00:40:08;99335.31;;;-0.31;nan
72975;BME280;61166;54.228;37.632;2022-11-04T00:42:35;99346.19;;;-0.18;nan
72975;BME280;61166;54.228;37.632;2022-11-04T00:45:02;99337.34;;;-0.16;nan
72975;BME280;61166;54.228;37.632;2022-11-04T00:47:29;99337.75;;;-0.20;nan
72975;BME280;61166;54.228;37.632;2022-11-04T00:49:56;99336.78;;;-0.19;nan
72975;BME280;61166;54.228;37.632;2022-11-04T00:52:22;99342.38;;;-0.24;nan
72975;BME280;61166;54.228;37.632;2022-11-04T00:54:49;99335.56;;;-0.25;nan
72975;BME280;61166;54.228;37.632;2022-11-04T00:57:15;99336.13;;;-0.21;nan
72975;BME280;61166;54.228;37.632;2022-11-04T00:59:42;99337.47;;;-0.17;nan
72975;BME280;61166;54.228;37.632;2022-11-04T01:02:09;99333.25;;;-0.18;nan
72975;BME280;61166;54.228;37.632;2022-11-04T01:04:36;99361.69;;;-0.18;nan
72975;BME280;61166;54.228;37.632;2022-11-04T01:07:02;99331.47;;;-0.08;nan
72975;BME280;61166;54.228;37.632;2022-11-04T01:09:29;99325.75;;;-0.02;nan
72975;BME280;61166;54.228;37.632;2022-11-04T01:11:56;99316.72;;;0.02;nan
72975;BME280;61166;54.228;37.632;2022-11-04T01:14:23;99325.75;;;-0.02;nan
72975;BME280;61166;54.228;37.632;2022-11-04T01:16:50;99322.53;;;-0.33;nan
72975;BME280;61166;54.228;37.632;2022-11-04T01:19:17;99328.00;;;-0.65;nan
72975;BME280;61166;54.228;37.632;2022-11-04T01:21:44;99325.97;;;-0.90;nan
72975;BME280;61166;54.228;37.632;2022-11-04T01:24:10;99324.44;;;-1.12;nan
72975;BME280;61166;54.228;37.632;2022-11-04T01:26:37;99316.84;;;-1.23;nan
72975;BME280;61166;54.228;37.632;2022-11-04T01:29:04;99328.44;;;-1.48;nan
72975;BME280;61166;54.228;37.632;2022-11-04T01:31:30;99319.81;;;-1.68;nan
72975;BME280;61166;54.228;37.632;2022-11-04T01:33:57;99325.59;;;-1.85;nan
72975;BME280;61166;54.228;37.632;2022-11-04T01:36:25;99327.75;;;-1.90;nan
72975;BME280;61166;54.228;37.632;2022-11-04T01:38:53;99324.16;;;-1.99;nan
72975;BME280;61166;54.228;37.632;2022-11-04T01:41:23;99330.69;;;-1.95;nan
72975;BME280;61166;54.228;37.632;2022-11-04T01:46:45;99326.81;;;-2.10;nan
72975;BME280;61166;54.228;37.632;2022-11-04T01:49:32;99323.41;;;-1.90;nan
72975;BME280;61166;54.228;37.632;2022-11-04T01:52:10;99330.34;;;-2.11;nan
72975;BME280;61166;54.228;37.632;2022-11-04T01:54:40;99328.53;;;-2.20;nan
72975;BME280;61166;54.228;37.632;2022-11-04T01:57:10;99321.16;;;-2.04;nan
72975;BME280;61166;54.228;37.632;2022-11-04T01:59:40;99310.22;;;-2.17;nan
72975;BME280;61166;54.228;37.632;2022-11-04T02:02:07;99322.69;;;-2.22;nan
72975;BME280;61166;54.228;37.632;2022-11-04T02:04:35;99312.75;;;-2.06;nan
72975;BME280;61166;54.228;37.632;2022-11-04T02:07:04;99313.78;;;-1.88;nan
72975;BME280;61166;54.228;37.632;2022-11-04T02:09:32;99311.81;;;-1.65;nan
72975;BME280;61166;54.228;37.632;2022-11-04T02:11:59;99322.03;;;-1.54;nan
72975;BME280;61166;54.228;37.632;2022-11-04T02:14:26;99322.75;;;-1.42;nan
72975;BME280;61166;54.228;37.632;2022-11-04T02:16:59;99327.41;;;-1.26;nan
72975;BME280;61166;54.228;37.632;2022-11-04T02:19:56;99325.00;;;-1.18;nan
72975;BME280;61166;54.228;37.632;2022-11-04T02:22:42;99326.06;;;-1.11;nan
72975;BME280;61166;54.228;37.632;2022-11-04T02:28:32;99321.59;;;-1.00;nan
72975;BME280;61166;54.228;37.632;2022-11-04T02:34:00;99317.81;;;-0.86;nan
72975;BME280;61166;54.228;37.632;2022-11-04T02:39:47;99308.31;;;-0.76;nan
72975;BME280;61166;54.228;37.632;2022-11-04T02:42:23;99310.34;;;-0.60;nan
72975;BME280;61166;54.228;37.632;2022-11-04T02:45:01;99309.50;;;-0.51;nan
72975;BME280;61166;54.228;37.632;2022-11-04T02:47:35;99312.47;;;-0.46;nan
72975;BME280;61166;54.228;37.632;2022-11-04T02:50:16;99305.41;;;-0.44;nan
72975;BME280;61166;54.228;37.632;2022-11-04T02:55:53;99308.13;;;-0.36;nan
72975;BME280;61166;54.228;37.632;2022-11-04T02:58:36;99308.41;;;-0.48;nan
72975;BME280;61166;54.228;37.632;2022-11-04T03:01:05;99308.13;;;-0.55;nan
72975;BME280;61166;54.228;37.632;2022-11-04T03:03:37;99308.56;;;-0.59;nan
72975;BME280;61166;54.228;37.632;2022-11-04T03:06:08;99311.56;;;-0.64;nan
72975;BME280;61166;54.228;37.632;2022-11-04T03:08:40;99314.16;;;-0.64;nan
72975;BME280;61166;54.228;37.632;2022-11-04T03:11:17;99310.88;;;-0.66;nan
72975;BME280;61166;54.228;37.632;2022-11-04T03:13:49;99306.94;;;-0.70;nan
72975;BME280;61166;54.228;37.632;2022-11-04T03:16:24;99307.63;;;-0.68;nan
72975;BME280;61166;54.228;37.632;2022-11-04T03:19:00;99306.53;;;-0.75;nan
72975;BME280;61166;54.228;37.632;2022-11-04T03:21:33;99300.28;;;-0.63;nan
72975;BME280;61166;54.228;37.632;2022-11-04T03:24:01;99297.28;;;-0.58;nan
72975;BME280;61166;54.228;37.632;2022-11-04T03:26:44;99307.34;;;-0.65;nan
72975;BME280;61166;54.228;37.632;2022-11-04T03:29:28;99307.31;;;-0.55;nan
72975;BME280;61166;54.228;37.632;2022-11-04T03:34:32;99300.66;;;-0.48;nan
72975;BME280;61166;54.228;37.632;2022-11-04T03:36:59;99300.25;;;-0.53;nan
72975;BME280;61166;54.228;37.632;2022-11-04T03:39:26;99304.03;;;-0.48;nan
72975;BME280;61166;54.228;37.632;2022-11-04T03:41:56;99298.34;;;-0.51;nan
72975;BME280;61166;54.228;37.632;2022-11-04T03:44:23;99304.03;;;-0.48;nan
72975;BME280;61166;54.228;37.632;2022-11-04T03:46:51;99293.72;;;-0.48;nan
72975;BME280;61166;54.228;37.632;2022-11-04T03:49:19;99294.00;;;-0.51;nan
72975;BME280;61166;54.228;37.632;2022-11-04T03:51:47;99299.16;;;-0.51;nan
72975;BME280;61166;54.228;37.632;2022-11-04T03:54:14;99293.72;;;-0.48;nan
72975;BME280;61166;54.228;37.632;2022-11-04T03:59:28;99299.56;;;-0.46;nan
72975;BME280;61166;54.228;37.632;2022-11-04T04:04:38;99293.16;;;-0.32;nan
72975;BME280;61166;54.228;37.632;2022-11-04T04:10:06;99294.50;;;-0.38;nan
72975;BME280;61166;54.228;37.632;2022-11-04T04:12:37;99298.47;;;-0.43;nan
72975;BME280;61166;54.228;37.632;2022-11-04T04:15:20;99304.03;;;-0.48;nan
72975;BME280;61166;54.228;37.632;2022-11-04T04:17:55;99296.97;;;-0.46;nan
72975;BME280;61166;54.228;37.632;2022-11-04T04:20:27;99299.28;;;-0.43;nan
72975;BME280;61166;54.228;37.632;2022-11-04T04:23:00;99301.06;;;-0.43;nan
72975;BME280;61166;54.228;37.632;2022-11-04T04:25:30;99296.53;;;-0.31;nan
72975;BME280;61166;54.228;37.632;2022-11-04T04:27:59;99306.06;;;-0.22;nan
72975;BME280;61166;54.228;37.632;2022-11-04T04:30:27;99303.72;;;-0.16;nan
72975;BME280;61166;54.228;37.632;2022-11-04T04:33:02;99300.31;;;-0.16;nan
72975;BME280;61166;54.228;37.632;2022-11-04T04:35:42;99295.41;;;-0.10;nan
72975;BME280;61166;54.228;37.632;2022-11-04T04:38:22;99301.94;;;-0.06;nan
72975;BME280;61166;54.228;37.632;2022-11-04T04:40:53;99298.81;;;-0.09;nan
72975;BME280;61166;54.228;37.632;2022-11-04T04:43:27;99309.84;;;-0.17;nan
72975;BME280;61166;54.228;37.632;2022-11-04T04:45:54;99314.34;;;-0.19;nan
72975;BME280;61166;54.228;37.632;2022-11-04T04:48:22;99309.31;;;-0.20;nan
72975;BME280;61166;54.228;37.632;2022-11-04T04:50:50;99320.34;;;-0.18;nan
72975;BME280;61166;54.228;37.632;2022-11-04T04:53:18;99317.06;;;-0.20;nan
72975;BME280;61166;54.228;37.632;2022-11-04T04:55:45;99313.81;;;-0.22;nan
72975;BME280;61166;54.228;37.632;2022-11-04T04:58:11;99314.63;;;-0.22;nan
72975;BME280;61166;54.228;37.632;2022-11-04T05:00:38;99320.22;;;-0.26;nan
72975;BME280;61166;54.228;37.632;2022-11-04T05:03:04;99322.50;;;-0.14;nan
72975;BME280;61166;54.228;37.632;2022-11-04T05:05:31;99324.41;;;-0.16;nan
72975;BME280;61166;54.228;37.632;2022-11-04T05:08:05;99325.75;;;-0.12;nan
72975;BME280;61166;54.228;37.632;2022-11-04T05:10:33;99322.78;;;-0.17;nan
72975;BME280;61166;54.228;37.632;2022-11-04T05:13:00;99330.38;;;-0.06;nan
72975;BME280;61166;54.228;37.632;2022-11-04T05:15:27;99323.44;;;-0.05;nan
72975;BME280;61166;54.228;37.632;2022-11-04T05:17:56;99328.69;;;0.03;nan
72975;BME280;61166;54.228;37.632;2022-11-04T05:20:26;99322.56;;;0.04;nan
72975;BME280;61166;54.228;37.632;2022-11-04T05:22:53;99320.66;;;0.06;nan
72975;BME280;61166;54.228;37.632;2022-11-04T05:25:20;99333.28;;;0.19;nan
72975;BME280;61166;54.228;37.632;2022-11-04T05:27:46;99333.53;;;0.25;nan
72975;BME280;61166;54.228;37.632;2022-11-04T05:30:13;99331.75;;;0.26;nan
72975;BME280;61166;54.228;37.632;2022-11-04T05:32:39;99333.81;;;0.22;nan
72975;BME280;61166;54.228;37.632;2022-11-04T05:35:06;99333.66;;;0.24;nan
72975;BME280;61166;54.228;37.632;2022-11-04T05:37:33;99329.69;;;0.29;nan
72975;BME280;61166;54.228;37.632;2022-11-04T05:39:59;99343.47;;;0.20;nan
72975;BME280;61166;54.228;37.632;2022-11-04T05:42:45;99342.66;;;0.20;nan
72975;BME280;61166;54.228;37.632;2022-11-04T05:45:11;99341.13;;;0.27;nan
72975;BME280;61166;54.228;37.632;2022-11-04T05:47:38;99347.84;;;0.10;nan
72975;BME280;61166;54.228;37.632;2022-11-04T05:50:05;99341.72;;;0.21;nan
72975;BME280;61166;54.228;37.632;2022-11-04T05:52:31;99339.25;;;0.19;nan
72975;BME280;61166;54.228;37.632;2022-11-04T05:54:58;99338.97;;;0.22;nan
72975;BME280;61166;54.228;37.632;2022-11-04T05:57:25;99342.38;;;0.23;nan
72975;BME280;61166;54.228;37.632;2022-11-04T05:59:51;99344.69;;;0.26;nan
72975;BME280;61166;54.228;37.632;2022-11-04T06:02:18;99344.25;;;0.30;nan
72975;BME280;61166;54.228;37.632;2022-11-04T06:04:45;99347.09;;;0.37;nan
72975;BME280;61166;54.228;37.632;2022-11-04T06:07:11;99346.94;;;0.39;nan
72975;BME280;61166;54.228;37.632;2022-11-04T06:09:38;99352.00;;;0.40;nan
72975;BME280;61166;54.228;37.632;2022-11-04T06:12:10;99344.94;;;0.32;nan
72975;BME280;61166;54.228;37.632;2022-11-04T06:14:37;99346.41;;;0.35;nan
72975;BME280;61166;54.228;37.632;2022-11-04T06:17:03;99351.56;;;0.45;nan
72975;BME280;61166;54.228;37.632;2022-11-04T06:19:30;99351.38;;;0.56;nan
72975;BME280;61166;54.228;37.632;2022-11-04T06:21:57;99349.69;;;0.64;nan
72975;BME280;61166;54.228;37.632;2022-11-04T06:24:24;99355.28;;;0.60;nan
72975;BME280;61166;54.228;37.632;2022-11-04T06:26:50;99356.06;;;0.70;nan
72975;BME280;61166;54.228;37.632;2022-11-04T06:29:17;99350.09;;;0.60;nan
72975;BME280;61166;54.228;37.632;2022-11-04T06:31:43;99349.38;;;0.68;nan
72975;BME280;61166;54.228;37.632;2022-11-04T06:34:10;99358.69;;;0.60;nan
72975;BME280;61166;54.228;37.632;2022-11-04T06:36:36;99354.84;;;0.64;nan
72975;BME280;61166;54.228;37.632;2022-11-04T06:39:03;99388.13;;;0.59;nan
72975;BME280;61166;54.228;37.632;2022-11-04T06:41:30;99386.78;;;0.55;nan
72975;BME280;61166;54.228;37.632;2022-11-04T06:43:57;99359.06;;;0.65;nan
72975;BME280;61166;54.228;37.632;2022-11-04T06:46:30;99355.66;;;0.65;nan
72975;BME280;61166;54.228;37.632;2022-11-04T06:48:58;99353.47;;;0.70;nan
72975;BME280;61166;54.228;37.632;2022-11-04T06:51:25;99354.44;;;0.69;nan
72975;BME280;61166;54.228;37.632;2022-11-04T06:53:52;99347.91;;;0.65;nan
72975;BME280;61166;54.228;37.632;2022-11-04T06:56:18;99354.72;;;0.66;nan
72975;BME280;61166;54.228;37.632;2022-11-04T06:58:49;99344.16;;;0.77;nan
72975;BME280;61166;54.228;37.632;2022-11-04T07:01:17;99347.13;;;0.82;nan
72975;BME280;61166;54.228;37.632;2022-11-04T07:03:52;99347.28;;;0.81;nan
72975;BME280;61166;54.228;37.632;2022-11-04T07:06:20;99346.75;;;0.77;nan
72975;BME280;61166;54.228;37.632;2022-11-04T07:08:48;99350.41;;;0.84;nan
72975;BME280;61166;54.228;37.632;2022-11-04T07:11:16;99349.44;;;0.85;nan
72975;BME280;61166;54.228;37.632;2022-11-04T07:13:43;99351.72;;;0.88;nan
72975;BME280;61166;54.228;37.632;2022-11-04T07:16:10;99355.22;;;0.97;nan
72975;BME280;61166;54.228;37.632;2022-11-04T07:18:36;99352.50;;;0.98;nan
72975;BME280;61166;54.228;37.632;2022-11-04T07:21:03;99354.88;;;1.10;nan
72975;BME280;61166;54.228;37.632;2022-11-04T07:23:35;99350.72;;;1.17;nan
72975;BME280;61166;54.228;37.632;2022-11-04T07:26:04;99346.88;;;1.21;nan
72975;BME280;61166;54.228;37.632;2022-11-04T07:28:31;99351.16;;;1.30;nan
72975;BME280;61166;54.228;37.632;2022-11-04T07:30:59;99353.31;;;1.35;nan
72975;BME280;61166;54.228;37.632;2022-11-04T07:33:27;99347.84;;;1.38;nan
72975;BME280;61166;54.228;37.632;2022-11-04T07:35:55;99355.69;;;1.28;nan
72975;BME280;61166;54.228;37.632;2022-11-04T07:38:24;99341.84;;;1.37;nan
72975;BME280;61166;54.228;37.632;2022-11-04T07:40:51;99346.06;;;1.38;nan
72975;BME280;61166;54.228;37.632;2022-11-04T07:43:17;99347.53;;;1.41;nan
72975;BME280;61166;54.228;37.632;2022-11-04T07:45:44;99356.22;;;1.49;nan
72975;BME280;61166;54.228;37.632;2022-11-04T07:48:11;99350.13;;;1.58;nan
72975;BME280;61166;54.228;37.632;2022-11-04T07:50:38;99349.84;;;1.61;nan
72975;BME280;61166;54.228;37.632;2022-11-04T07:53:05;99353.91;;;1.64;nan
72975;BME280;61166;54.228;37.632;2022-11-04T07:55:32;99353.16;;;1.72;nan
72975;BME280;61166;54.228;37.632;2022-11-04T07:58:05;99341.63;;;1.74;nan
72975;BME280;61166;54.228;37.632;2022-11-04T08:00:31;99341.34;;;1.77;nan
72975;BME280;61166;54.228;37.632;2022-11-04T08:02:58;99345.88;;;1.75;nan
72975;BME280;61166;54.228;37.632;2022-11-04T08:05:24;99347.69;;;1.83;nan
72975;BME280;61166;54.228;37.632;2022-11-04T08:07:51;99344.34;;;1.64;nan
72975;BME280;61166;54.228;37.632;2022-11-04T08:10:17;99338.72;;;1.51;nan
72975;BME280;61166;54.228;37.632;2022-11-04T08:12:44;99347.16;;;1.53;nan
72975;BME280;61166;54.228;37.632;2022-11-04T08:15:11;99344.72;;;1.52;nan
72975;BME280;61166;54.228;37.632;2022-11-04T08:17:37;99342.50;;;1.57;nan
72975;BME280;61166;54.228;37.632;2022-11-04T08:20:04;99351.03;;;1.49;nan
72975;BME280;61166;54.228;37.632;2022-11-04T08:22:31;99348.50;;;1.57;nan
72975;BME280;61166;54.228;37.632;2022-11-04T08:24:59;99352.66;;;1.50;nan
72975;BME280;61166;54.228;37.632;2022-11-04T08:27:25;99339.47;;;1.61;nan
72975;BME280;61166;54.228;37.632;2022-11-04T08:29:52;99342.34;;;1.58;nan
72975;BME280;61166;54.228;37.632;2022-11-04T08:32:19;99341.09;;;1.62;nan
72975;BME280;61166;54.228;37.632;2022-11-04T08:34:45;99350.34;;;1.65;nan
72975;BME280;61166;54.228;37.632;2022-11-04T08:37:13;99356.34;;;1.65;nan
72975;BME280;61166;54.228;37.632;2022-11-04T08:39:40;99346.28;;;1.62;nan
72975;BME280;61166;54.228;37.632;2022-11-04T08:42:08;99335.91;;;1.62;nan
72975;BME280;61166;54.228;37.632;2022-11-04T08:44:34;99342.56;;;1.65;nan
72975;BME280;61166;54.228;37.632;2022-11-04T08:47:01;99346.88;;;1.56;nan
72975;BME280;61166;54.228;37.632;2022-11-04T08:49:30;99343.53;;;1.64;nan
72975;BME280;61166;54.228;37.632;2022-11-04T08:51:56;99336.66;;;1.81;nan
72975;BME280;61166;54.228;37.632;2022-11-04T08:54:24;99338.44;;;1.80;nan
72975;BME280;61166;54.228;37.632;2022-11-04T08:56:52;99331.13;;;1.76;nan
72975;BME280;61166;54.228;37.632;2022-11-04T08:59:19;99334.38;;;1.78;nan
72975;BME280;61166;54.228;37.632;2022-11-04T09:01:45;99335.59;;;1.91;nan
72975;BME280;61166;54.228;37.632;2022-11-04T09:04:12;99328.53;;;2.02;nan
72975;BME280;61166;54.228;37.632;2022-11-04T09:06:41;99330.13;;;1.94;nan
72975;BME280;61166;54.228;37.632;2022-11-04T09:09:12;99322.28;;;2.12;nan
72975;BME280;61166;54.228;37.632;2022-11-04T09:11:41;99319.69;;;2.12;nan
72975;BME280;61166;54.228;37.632;2022-11-04T09:14:09;99322.19;;;2.22;nan
72975;BME280;61166;54.228;37.632;2022-11-04T09:16:38;99329.34;;;2.28;nan
72975;BME280;61166;54.228;37.632;2022-11-04T09:19:05;99332.06;;;2.18;nan
72975;BME280;61166;54.228;37.632;2022-11-04T09:21:32;99330.94;;;2.21;nan
72975;BME280;61166;54.228;37.632;2022-11-04T09:23:58;99336.00;;;2.30;nan
72975;BME280;61166;54.228;37.632;2022-11-04T09:26:25;99330.63;;;2.32;nan
72975;BME280;61166;54.228;37.632;2022-11-04T09:28:53;99329.50;;;2.35;nan
72975;BME280;61166;54.228;37.632;2022-11-04T09:31:20;99330.97;;;2.37;nan
72975;BME280;61166;54.228;37.632;2022-11-04T09:33:47;99327.78;;;2.43;nan
72975;BME280;61166;54.228;37.632;2022-11-04T09:36:13;99327.16;;;2.49;nan
72975;BME280;61166;54.228;37.632;2022-11-04T09:38:41;99324.66;;;2.40;nan
72975;BME280;61166;54.228;37.632;2022-11-04T09:44:35;99328.22;;;2.39;nan
72975;BME280;61166;54.228;37.632;2022-11-04T09:46:38;99330.84;;;2.39;nan
72975;BME280;61166;54.228;37.632;2022-11-04T09:49:08;99333.44;;;2.39;nan
72975;BME280;61166;54.228;37.632;2022-11-04T09:51:36;99333.94;;;2.42;nan
72975;BME280;61166;54.228;37.632;2022-11-04T09:56:48;99320.56;;;2.63;nan
72975;BME280;61166;54.228;37.632;2022-11-04T09:59:19;99333.19;;;2.58;nan
72975;BME280;61166;54.228;37.632;2022-11-04T10:02:04;99327.63;;;2.45;nan
72975;BME280;61166;54.228;37.632;2022-11-04T10:15:46;99325.13;;;2.69;nan
72975;BME280;61166;54.228;37.632;2022-11-04T10:18:38;99319.25;;;2.59;nan
72975;BME280;61166;54.228;37.632;2022-11-04T10:21:28;99330.59;;;2.58;nan
72975;BME280;61166;54.228;37.632;2022-11-04T10:26:42;99339.31;;;2.49;nan
72975;BME280;61166;54.228;37.632;2022-11-04T10:31:46;99329.31;;;2.62;nan
72975;BME280;61166;54.228;37.632;2022-11-04T10:34:31;99334.38;;;2.72;nan
72975;BME280;61166;54.228;37.632;2022-11-04T10:37:02;99338.44;;;2.74;nan
72975;BME280;61166;54.228;37.632;2022-11-04T10:39:31;99338.38;;;2.58;nan
72975;BME280;61166;54.228;37.632;2022-11-04T10:42:00;99334.50;;;2.62;nan
72975;BME280;61166;54.228;37.632;2022-11-04T10:44:30;99328.19;;;2.64;nan
72975;BME280;61166;54.228;37.632;2022-11-04T10:52:25;99330.97;;;2.71;nan
72975;BME280;61166;54.228;37.632;2022-11-04T10:54:52;99340.13;;;2.49;nan
72975;BME280;61166;54.228;37.632;2022-11-04T10:57:24;99338.19;;;2.51;nan
72975;BME280;61166;54.228;37.632;2022-11-04T10:59:56;99338.53;;;2.56;nan
72975;BME280;61166;54.228;37.632;2022-11-04T11:05:13;99333.19;;;2.58;nan
72975;BME280;61166;54.228;37.632;2022-11-04T11:07:41;99336.00;;;2.30;nan
72975;BME280;61166;54.228;37.632;2022-11-04T11:10:20;99340.25;;;2.40;nan
72975;BME280;61166;54.228;37.632;2022-11-04T11:12:59;99337.31;;;2.35;nan
72975;BME280;61166;54.228;37.632;2022-11-04T11:15:27;99331.44;;;2.32;nan
72975;BME280;61166;54.228;37.632;2022-11-04T11:17:59;99330.16;;;2.37;nan
72975;BME280;61166;54.228;37.632;2022-11-04T11:20:27;99327.41;;;2.30;nan
72975;BME280;61166;54.228;37.632;2022-11-04T11:22:53;99328.19;;;2.22;nan
72975;BME280;61166;54.228;37.632;2022-11-04T11:25:51;99333.81;;;1.92;nan
72975;BME280;61166;54.228;37.632;2022-11-04T11:28:22;99335.31;;;1.94;nan
72975;BME280;61166;54.228;37.632;2022-11-04T11:33:19;99323.41;;;1.84;nan
72975;BME280;61166;54.228;37.632;2022-11-04T11:35:54;99323.81;;;1.71;nan
72975;BME280;61166;54.228;37.632;2022-11-04T11:38:24;99329.16;;;1.70;nan
72975;BME280;61166;54.228;37.632;2022-11-04T11:40:53;99331.47;;;1.81;nan
72975;BME280;61166;54.228;37.632;2022-11-04T11:43:53;99332.09;;;1.75;nan
72975;BME280;61166;54.228;37.632;2022-11-04T11:46:26;99329.91;;;1.88;nan
72975;BME280;61166;54.228;37.632;2022-11-04T11:48:56;99335.31;;;1.69;nan
72975;BME280;61166;54.228;37.632;2022-11-04T11:56:37;99330.63;;;1.72;nan
72975;BME280;61166;54.228;37.632;2022-11-04T11:59:25;99335.84;;;1.80;nan
72975;BME280;61166;54.228;37.632;2022-11-04T12:05:00;99331.03;;;1.59;nan
72975;BME280;61166;54.228;37.632;2022-11-04T12:13:55;99340.44;;;1.60;nan
72975;BME280;61166;54.228;37.632;2022-11-04T12:16:33;99339.75;;;1.58;nan
72975;BME280;61166;54.228;37.632;2022-11-04T12:21:46;99343.63;;;1.54;nan
72975;BME280;61166;54.228;37.632;2022-11-04T12:30:13;99338.06;;;1.49;nan
72975;BME280;61166;54.228;37.632;2022-11-04T12:32:50;99345.47;;;1.44;nan
72975;BME280;61166;54.228;37.632;2022-11-04T13:00:38;99363.91;;;1.06;nan
72975;BME280;61166;54.228;37.632;2022-11-04T13:03:15;99362.47;;;0.93;nan
72975;BME280;61166;54.228;37.632;2022-11-04T13:06:09;99358.59;;;0.80;nan
72975;BME280;61166;54.228;37.632;2022-11-04T13:08:43;99363.72;;;0.89;nan
72975;BME280;61166;54.228;37.632;2022-11-04T13:11:24;99369.44;;;0.93;nan
72975;BME280;61166;54.228;37.632;2022-11-04T13:17:16;99368.53;;;0.84;nan
72975;BME280;61166;54.228;37.632;2022-11-04T13:19:49;99369.34;;;0.85;nan
72975;BME280;61166;54.228;37.632;2022-11-04T13:22:26;99377.34;;;0.91;nan
72975;BME280;61166;54.228;37.632;2022-11-04T13:25:04;99382.13;;;0.86;nan
72975;BME280;61166;54.228;37.632;2022-11-04T13:27:46;99384.72;;;0.86;nan
72975;BME280;61166;54.228;37.632;2022-11-04T13:30:30;99383.25;;;0.84;nan
72975;BME280;61166;54.228;37.632;2022-11-04T13:33:20;99383.19;;;0.93;nan
72975;BME280;61166;54.228;37.632;2022-11-04T13:38:54;99387.97;;;0.88;nan
72975;BME280;61166;54.228;37.632;2022-11-04T13:44:04;99389.91;;;0.86;nan
72975;BME280;61166;54.228;37.632;2022-11-04T13:46:38;99386.16;;;0.71;nan
72975;BME280;61166;54.228;37.632;2022-11-04T13:49:19;99396.34;;;0.55;nan
72975;BME280;61166;54.228;37.632;2022-11-04T13:52:04;99396.91;;;0.76;nan
72975;BME280;61166;54.228;37.632;2022-11-04T13:57:17;99399.97;;;0.89;nan
72975;BME280;61166;54.228;37.632;2022-11-04T14:08:15;99405.63;;;1.03;nan
72975;BME280;61166;54.228;37.632;2022-11-04T14:16:04;99409.94;;;1.12;nan
72975;BME280;61166;54.228;37.632;2022-11-04T14:18:33;99408.31;;;1.11;nan
72975;BME280;61166;54.228;37.632;2022-11-04T14:23:30;99416.53;;;1.06;nan
72975;BME280;61166;54.228;37.632;2022-11-04T14:26:02;99412.16;;;1.07;nan
72975;BME280;61166;54.228;37.632;2022-11-04T14:28:31;99414.34;;;1.02;nan
72975;BME280;61166;54.228;37.632;2022-11-04T14:31:06;99418.56;;;1.03;nan
72975;BME280;61166;54.228;37.632;2022-11-04T14:33:54;99417.56;;;1.13;nan
72975;BME280;61166;54.228;37.632;2022-11-04T14:36:33;99427.16;;;1.03;nan
72975;BME280;61166;54.228;37.632;2022-11-04T14:39:05;99427.78;;;0.87;nan
72975;BME280;61166;54.228;37.632;2022-11-04T14:44:12;99425.75;;;0.81;nan
72975;BME280;61166;54.228;37.632;2022-11-04T14:46:43;99433.81;;;0.78;nan
72975;BME280;61166;54.228;37.632;2022-11-04T14:51:57;99426.97;;;0.87;nan
72975;BME280;61166;54.228;37.632;2022-11-04T14:54:26;99422.66;;;0.78;nan
72975;BME280;61166;54.228;37.632;2022-11-04T14:57:08;99429.16;;;0.82;nan
72975;BME280;61166;54.228;37.632;2022-11-04T14:59:44;99433.53;;;0.81;nan
72975;BME280;61166;54.228;37.632;2022-11-04T15:02:27;99442.25;;;0.80;nan
72975;BME280;61166;54.228;37.632;2022-11-04T15:05:00;99443.34;;;0.78;nan
72975;BME280;61166;54.228;37.632;2022-11-04T15:09:56;99442.25;;;0.80;nan
72975;BME280;61166;54.228;37.632;2022-11-04T15:12:23;99445.81;;;0.79;nan
72975;BME280;61166;54.228;37.632;2022-11-04T15:14:51;99454.13;;;0.73;nan
72975;BME280;61166;54.228;37.632;2022-11-04T15:17:19;99438.31;;;0.76;nan
72975;BME280;61166;54.228;37.632;2022-11-04T15:19:50;99446.50;;;0.72;nan
72975;BME280;61166;54.228;37.632;2022-11-04T15:22:17;99445.56;;;0.73;nan
72975;BME280;61166;54.228;37.632;2022-11-04T15:24:45;99439.00;;;0.78;nan
72975;BME280;61166;54.228;37.632;2022-11-04T15:27:14;99455.66;;;0.66;nan
72975;BME280;61166;54.228;37.632;2022-11-04T15:29:56;99451.81;;;0.70;nan
72975;BME280;61166;54.228;37.632;2022-11-04T15:32:24;99456.19;;;0.70;nan
72975;BME280;61166;54.228;37.632;2022-11-04T15:34:51;99455.50;;;0.68;nan
72975;BME280;61166;54.228;37.632;2022-11-04T15:37:20;99461.91;;;0.73;nan
72975;BME280;61166;54.228;37.632;2022-11-04T15:39:50;99462.72;;;0.74;nan
72975;BME280;61166;54.228;37.632;2022-11-04T15:42:29;99467.34;;;0.70;nan
72975;BME280;61166;54.228;37.632;2022-11-04T15:47:45;99466.72;;;0.58;nan
72975;BME280;61166;54.228;37.632;2022-11-04T15:50:22;99465.63;;;0.61;nan
72975;BME280;61166;54.228;37.632;2022-11-04T15:52:53;99468.13;;;0.53;nan
72975;BME280;61166;54.228;37.632;2022-11-04T15:55:22;99466.63;;;0.41;nan
72975;BME280;61166;54.228;37.632;2022-11-04T15:57:51;99467.19;;;0.44;nan
72975;BME280;61166;54.228;37.632;2022-11-04T16:00:21;99472.34;;;0.54;nan